OMD275 ENCN-ENGM
Flight info
| Callsign | OMD275 |
|---|---|
| Flight time | 0h 37m |
| Altitude | 33000 |
| Route | VAVET DCT PIPEX M609 RIPAM |
| Aircraft | B736/M-SDE2E3FGHIRWXY/LB1 |
Departure
| Time | 2026-04-30 20:46 |
|---|---|
| Airport | Kristiansand Airport (ENCN) |
Arrival
| Time | 2026-04-30 21:23 |
|---|---|
| Airport | Oslo-Gardermoen International Airport (ENGM) |
| Time | Latitude | Longitude | Altitude | Speed | Heading |
|---|---|---|---|---|---|
| 2026-04-30 20:29 | 58.20247 | 8.07565 | 65 ft | 0 kts | 301° |
| 2026-04-30 20:38 | 58.20241 | 8.07584 | 56 ft | 3 kts | 301° |
| 2026-04-30 20:38 | 58.20238 | 8.07592 | 57 ft | 0 kts | 301° |
| 2026-04-30 20:41 | 58.20241 | 8.07590 | 56 ft | 1 kts | 331° |
| 2026-04-30 20:42 | 58.20252 | 8.07612 | 60 ft | 4 kts | 57° |
| 2026-04-30 20:42 | 58.20278 | 8.07683 | 65 ft | 10 kts | 52° |
| 2026-04-30 20:42 | 58.20425 | 8.08044 | 66 ft | 23 kts | 53° |
| 2026-04-30 20:43 | 58.20476 | 8.08217 | 66 ft | 13 kts | 92° |
| 2026-04-30 20:43 | 58.20427 | 8.08391 | 64 ft | 16 kts | 121° |
| 2026-04-30 20:43 | 58.20456 | 8.08589 | 64 ft | 19 kts | 40° |
| 2026-04-30 20:44 | 58.20690 | 8.08895 | 61 ft | 20 kts | 34° |
| 2026-04-30 20:44 | 58.20804 | 8.09049 | 65 ft | 20 kts | 36° |
| 2026-04-30 20:44 | 58.21048 | 8.09382 | 62 ft | 20 kts | 34° |
| 2026-04-30 20:45 | 58.21136 | 8.09513 | 60 ft | 5 kts | 306° |
| 2026-04-30 20:45 | 58.21111 | 8.09457 | 57 ft | 8 kts | 216° |
| 2026-04-30 20:45 | 58.20893 | 8.09166 | 67 ft | 83 kts | 214° |
| 2026-04-30 20:46 | 58.18663 | 8.06223 | 2203 ft | 137 kts | 215° |
| 2026-04-30 20:46 | 58.17796 | 8.05362 | 2895 ft | 155 kts | 210° |
| 2026-04-30 20:47 | 58.15267 | 8.03601 | 3603 ft | 228 kts | 199° |
| 2026-04-30 20:47 | 58.13720 | 8.02745 | 4334 ft | 235 kts | 199° |
| 2026-04-30 20:48 | 58.10545 | 8.01125 | 6027 ft | 242 kts | 186° |
| 2026-04-30 20:48 | 58.08884 | 8.01701 | 6915 ft | 249 kts | 158° |
| 2026-04-30 20:48 | 58.07465 | 8.03773 | 7510 ft | 274 kts | 131° |
| 2026-04-30 20:48 | 58.06547 | 8.07016 | 8393 ft | 287 kts | 115° |
| 2026-04-30 20:49 | 58.06084 | 8.10705 | 9456 ft | 296 kts | 91° |
| 2026-04-30 20:49 | 58.06590 | 8.14491 | 10509 ft | 304 kts | 63° |
| 2026-04-30 20:49 | 58.07989 | 8.17588 | 11138 ft | 325 kts | 35° |
| 2026-04-30 20:50 | 58.12493 | 8.20757 | 12222 ft | 359 kts | 15° |
| 2026-04-30 20:50 | 58.14879 | 8.22242 | 13180 ft | 363 kts | 22° |
| 2026-04-30 20:50 | 58.17167 | 8.24331 | 14151 ft | 367 kts | 28° |
| 2026-04-30 20:50 | 58.19384 | 8.26648 | 15006 ft | 370 kts | 29° |
| 2026-04-30 20:51 | 58.21663 | 8.29105 | 15876 ft | 374 kts | 28° |
| 2026-04-30 20:51 | 58.26217 | 8.33948 | 17592 ft | 380 kts | 27° |
| 2026-04-30 20:51 | 58.28547 | 8.36372 | 18483 ft | 383 kts | 27° |
| 2026-04-30 20:52 | 58.30945 | 8.38785 | 19275 ft | 387 kts | 26° |
| 2026-04-30 20:52 | 58.33305 | 8.41120 | 19985 ft | 390 kts | 26° |
| 2026-04-30 20:52 | 58.38209 | 8.45955 | 21434 ft | 398 kts | 26° |
| 2026-04-30 20:53 | 58.40679 | 8.48402 | 22142 ft | 402 kts | 26° |
| 2026-04-30 20:53 | 58.43138 | 8.50849 | 22842 ft | 406 kts | 26° |
| 2026-04-30 20:53 | 58.45655 | 8.53360 | 23550 ft | 410 kts | 26° |
| 2026-04-30 20:54 | 58.50754 | 8.58468 | 24798 ft | 417 kts | 26° |
| 2026-04-30 20:54 | 58.53330 | 8.61057 | 25404 ft | 420 kts | 26° |
| 2026-04-30 20:54 | 58.55922 | 8.63667 | 26016 ft | 422 kts | 26° |
| 2026-04-30 20:55 | 58.61155 | 8.68950 | 27185 ft | 428 kts | 26° |
| 2026-04-30 20:55 | 58.63790 | 8.71630 | 27741 ft | 431 kts | 27° |
| 2026-04-30 20:55 | 58.66399 | 8.74554 | 28297 ft | 435 kts | 30° |
| 2026-04-30 20:56 | 58.71531 | 8.80859 | 29346 ft | 441 kts | 31° |
| 2026-04-30 20:56 | 58.74110 | 8.84097 | 29782 ft | 443 kts | 31° |
| 2026-04-30 20:56 | 58.79217 | 8.90475 | 31290 ft | 433 kts | 30° |
| 2026-04-30 20:57 | 58.81758 | 8.93617 | 31828 ft | 433 kts | 30° |
| 2026-04-30 20:57 | 58.84293 | 8.96740 | 32311 ft | 433 kts | 30° |
| 2026-04-30 20:57 | 58.86832 | 8.99868 | 32848 ft | 432 kts | 30° |
| 2026-04-30 20:58 | 58.91917 | 9.06138 | 33316 ft | 437 kts | 30° |
| 2026-04-30 20:58 | 58.94477 | 9.09305 | 33326 ft | 435 kts | 30° |
| 2026-04-30 20:58 | 58.99527 | 9.15573 | 33345 ft | 429 kts | 30° |
| 2026-04-30 20:59 | 59.07124 | 9.25037 | 33331 ft | 436 kts | 30° |
| 2026-04-30 21:00 | 59.17391 | 9.37914 | 32207 ft | 441 kts | 30° |
| 2026-04-30 21:01 | 59.22465 | 9.44320 | 31140 ft | 429 kts | 30° |
| 2026-04-30 21:01 | 59.24958 | 9.47475 | 30606 ft | 425 kts | 30° |
| 2026-04-30 21:01 | 59.29871 | 9.53706 | 29437 ft | 416 kts | 30° |
| 2026-04-30 21:02 | 59.32285 | 9.56775 | 28897 ft | 411 kts | 30° |
| 2026-04-30 21:02 | 59.34671 | 9.59813 | 28361 ft | 407 kts | 30° |
| 2026-04-30 21:02 | 59.37032 | 9.62825 | 27827 ft | 403 kts | 30° |
| 2026-04-30 21:02 | 59.39370 | 9.65812 | 27316 ft | 399 kts | 30° |
| 2026-04-30 21:03 | 59.41688 | 9.68777 | 26791 ft | 396 kts | 30° |
| 2026-04-30 21:03 | 59.43988 | 9.71725 | 26285 ft | 393 kts | 30° |
| 2026-04-30 21:03 | 59.46272 | 9.74657 | 25785 ft | 391 kts | 30° |
| 2026-04-30 21:03 | 59.48512 | 9.77536 | 25299 ft | 389 kts | 30° |
| 2026-04-30 21:04 | 59.50766 | 9.80439 | 24813 ft | 386 kts | 30° |
| 2026-04-30 21:04 | 59.53029 | 9.83359 | 24323 ft | 384 kts | 30° |
| 2026-04-30 21:04 | 59.57482 | 9.89117 | 23235 ft | 381 kts | 30° |
| 2026-04-30 21:05 | 59.59660 | 9.91941 | 22737 ft | 378 kts | 30° |
| 2026-04-30 21:05 | 59.61848 | 9.94784 | 22232 ft | 375 kts | 30° |
| 2026-04-30 21:05 | 59.64019 | 9.97608 | 21771 ft | 372 kts | 30° |
| 2026-04-30 21:05 | 59.66172 | 10.00412 | 21293 ft | 369 kts | 30° |
| 2026-04-30 21:06 | 59.68311 | 10.03202 | 20812 ft | 367 kts | 30° |
| 2026-04-30 21:06 | 59.70434 | 10.05976 | 20349 ft | 364 kts | 30° |
| 2026-04-30 21:06 | 59.72542 | 10.08736 | 19896 ft | 362 kts | 30° |
| 2026-04-30 21:06 | 59.74639 | 10.11484 | 19440 ft | 360 kts | 30° |
| 2026-04-30 21:07 | 59.76727 | 10.14223 | 18982 ft | 359 kts | 30° |
| 2026-04-30 21:07 | 59.78805 | 10.16955 | 18523 ft | 358 kts | 30° |
| 2026-04-30 21:07 | 59.80879 | 10.19685 | 17973 ft | 357 kts | 30° |
| 2026-04-30 21:07 | 59.82936 | 10.22396 | 17498 ft | 354 kts | 30° |
| 2026-04-30 21:08 | 59.84984 | 10.25102 | 17031 ft | 352 kts | 30° |
| 2026-04-30 21:08 | 59.87023 | 10.27799 | 16567 ft | 351 kts | 30° |
| 2026-04-30 21:08 | 59.89049 | 10.30483 | 16112 ft | 349 kts | 30° |
| 2026-04-30 21:08 | 59.91066 | 10.33159 | 15668 ft | 348 kts | 30° |
| 2026-04-30 21:09 | 59.93078 | 10.35830 | 15215 ft | 348 kts | 31° |
| 2026-04-30 21:09 | 59.95087 | 10.38504 | 14751 ft | 347 kts | 31° |
| 2026-04-30 21:09 | 59.97090 | 10.41170 | 14306 ft | 345 kts | 31° |
| 2026-04-30 21:09 | 59.99089 | 10.43836 | 13789 ft | 346 kts | 31° |
| 2026-04-30 21:10 | 60.01083 | 10.46501 | 13317 ft | 344 kts | 31° |
| 2026-04-30 21:10 | 60.03066 | 10.49157 | 12838 ft | 342 kts | 31° |
| 2026-04-30 21:10 | 60.05039 | 10.51809 | 12373 ft | 341 kts | 31° |
| 2026-04-30 21:10 | 60.07002 | 10.54446 | 11919 ft | 339 kts | 31° |
| 2026-04-30 21:11 | 60.08953 | 10.57065 | 11469 ft | 336 kts | 30° |
| 2026-04-30 21:11 | 60.10886 | 10.59667 | 11019 ft | 335 kts | 31° |
| 2026-04-30 21:11 | 60.12809 | 10.62259 | 10711 ft | 329 kts | 30° |
| 2026-04-30 21:11 | 60.14669 | 10.64777 | 10545 ft | 317 kts | 30° |
| 2026-04-30 21:12 | 60.16489 | 10.67234 | 10189 ft | 314 kts | 30° |
| 2026-04-30 21:12 | 60.18275 | 10.69652 | 9923 ft | 307 kts | 30° |
| 2026-04-30 21:12 | 60.20007 | 10.72003 | 9770 ft | 296 kts | 30° |
| 2026-04-30 21:12 | 60.21741 | 10.74353 | 9269 ft | 301 kts | 31° |
| 2026-04-30 21:13 | 60.23477 | 10.76709 | 8884 ft | 300 kts | 31° |
| 2026-04-30 21:13 | 60.25203 | 10.79055 | 8523 ft | 298 kts | 31° |
| 2026-04-30 21:13 | 60.26892 | 10.81357 | 8189 ft | 296 kts | 31° |
| 2026-04-30 21:13 | 60.28590 | 10.83674 | 7843 ft | 294 kts | 31° |
| 2026-04-30 21:14 | 60.30284 | 10.85988 | 7352 ft | 293 kts | 31° |
| 2026-04-30 21:14 | 60.31953 | 10.88272 | 6989 ft | 286 kts | 31° |
| 2026-04-30 21:14 | 60.33580 | 10.90502 | 6659 ft | 279 kts | 31° |
| 2026-04-30 21:14 | 60.35163 | 10.92673 | 6334 ft | 272 kts | 31° |
| 2026-04-30 21:15 | 60.36708 | 10.94793 | 6022 ft | 265 kts | 31° |
| 2026-04-30 21:15 | 60.38210 | 10.96856 | 5871 ft | 256 kts | 31° |
| 2026-04-30 21:15 | 60.39639 | 10.98826 | 5778 ft | 241 kts | 30° |
| 2026-04-30 21:15 | 60.40985 | 11.00684 | 5659 ft | 227 kts | 30° |
| 2026-04-30 21:16 | 60.42280 | 11.02468 | 5565 ft | 224 kts | 30° |
| 2026-04-30 21:16 | 60.43588 | 11.04267 | 5496 ft | 224 kts | 30° |
| 2026-04-30 21:16 | 60.44722 | 11.06308 | 5372 ft | 221 kts | 56° |
| 2026-04-30 21:16 | 60.45098 | 11.09205 | 5271 ft | 210 kts | 94° |
| 2026-04-30 21:17 | 60.44675 | 11.11954 | 5153 ft | 204 kts | 124° |
| 2026-04-30 21:17 | 60.43769 | 11.14136 | 4974 ft | 202 kts | 138° |
| 2026-04-30 21:17 | 60.42756 | 11.16119 | 4766 ft | 203 kts | 139° |
| 2026-04-30 21:17 | 60.41734 | 11.18091 | 4559 ft | 201 kts | 139° |
| 2026-04-30 21:18 | 60.40662 | 11.19741 | 4315 ft | 187 kts | 166° |
| 2026-04-30 21:18 | 60.39510 | 11.19573 | 4290 ft | 159 kts | 207° |
| 2026-04-30 21:18 | 60.38413 | 11.18837 | 4084 ft | 168 kts | 200° |
| 2026-04-30 21:18 | 60.37285 | 11.18205 | 3859 ft | 167 kts | 200° |
| 2026-04-30 21:19 | 60.36189 | 11.17584 | 3648 ft | 161 kts | 200° |
| 2026-04-30 21:19 | 60.35130 | 11.16976 | 3447 ft | 157 kts | 200° |
| 2026-04-30 21:19 | 60.34078 | 11.16368 | 3241 ft | 159 kts | 200° |
| 2026-04-30 21:19 | 60.33006 | 11.15749 | 3027 ft | 161 kts | 200° |
| 2026-04-30 21:20 | 60.31957 | 11.15143 | 2825 ft | 150 kts | 200° |
| 2026-04-30 21:20 | 60.31008 | 11.14598 | 2622 ft | 136 kts | 200° |
| 2026-04-30 21:20 | 60.30112 | 11.14079 | 2455 ft | 134 kts | 199° |
| 2026-04-30 21:20 | 60.29217 | 11.13561 | 2276 ft | 133 kts | 198° |
| 2026-04-30 21:21 | 60.28321 | 11.13045 | 2094 ft | 137 kts | 201° |
| 2026-04-30 21:21 | 60.27419 | 11.12523 | 1901 ft | 133 kts | 200° |
| 2026-04-30 21:21 | 60.25659 | 11.11506 | 1545 ft | 132 kts | 198° |
| 2026-04-30 21:22 | 60.24785 | 11.11002 | 1369 ft | 129 kts | 197° |
| 2026-04-30 21:22 | 60.22227 | 11.09529 | 826 ft | 123 kts | 194° |
| 2026-04-30 21:23 | 60.21408 | 11.09051 | 678 ft | 121 kts | 192° |
| 2026-04-30 21:23 | 60.20763 | 11.08685 | 677 ft | 66 kts | 196° |
| 2026-04-30 21:23 | 60.20337 | 11.08438 | 677 ft | 28 kts | 195° |
| 2026-04-30 21:24 | 60.20142 | 11.08328 | 674 ft | 29 kts | 193° |
| 2026-04-30 21:24 | 60.19952 | 11.08320 | 669 ft | 22 kts | 163° |
| 2026-04-30 21:24 | 60.19895 | 11.08432 | 672 ft | 0 kts | 108° |
| 2026-04-30 21:24 | 60.19895 | 11.08433 | 672 ft | 0 kts | 108° |
| 2026-04-30 21:25 | 60.19893 | 11.08443 | 669 ft | 0 kts | 108° |
| 2026-04-30 21:25 | 60.19892 | 11.08449 | 670 ft | 0 kts | 108° |
| 2026-04-30 21:25 | 60.19880 | 11.08532 | 670 ft | 11 kts | 105° |
| 2026-04-30 21:26 | 60.19826 | 11.08910 | 676 ft | 16 kts | 106° |
| 2026-04-30 21:26 | 60.19794 | 11.09122 | 677 ft | 15 kts | 107° |
| 2026-04-30 21:27 | 60.19737 | 11.09524 | 678 ft | 16 kts | 106° |
| 2026-04-30 21:27 | 60.19703 | 11.09723 | 679 ft | 14 kts | 127° |
| 2026-04-30 21:27 | 60.19650 | 11.09828 | 680 ft | 7 kts | 109° |
| 2026-04-30 21:28 | 60.19630 | 11.09960 | 680 ft | 0 kts | 105° |
| 2026-04-30 21:32 | 60.19629 | 11.09964 | 680 ft | 0 kts | 105° |